Time;durP1;ratioP1;P1;durP2;ratioP2;P2;SDS_P1;SDS_P2;PMS_P1;PMS_P2;Temp;Humidity;BMP_temperature;BMP_pressure;BME280_temperature;BME280_humidity;BME280_pressure;Samples;Min_cycle;Max_cycle;Signal;HPM_P1;HPM_P2
2023/06/28 00:01:30;;;;;;;;;;;;;;;24.27;67.32;100316.38;7401213;19;1442;-54
2023/06/28 00:03:58;;;;;;;;;;;;;;;24.30;67.19;100316.03;7399240;19;1327;-54
2023/06/28 00:06:27;;;;;;;;;;;;;;;24.28;67.23;100312.66;7400728;19;1861;-54
2023/06/28 00:08:55;;;;;;;;;;;;;;;24.30;67.40;100318.72;7401696;19;1007;-54
2023/06/28 00:11:25;;;;;;;;;;;;;;;24.31;67.15;100306.88;7401411;19;1521;-54
2023/06/28 00:13:54;;;;;;;;;;;;;;;24.38;66.91;100318.66;7400584;19;1852;-54
2023/06/28 00:16:25;;;;;;;;;;;;;;;24.25;67.23;100299.50;7399994;19;1513;-54
2023/06/28 00:18:53;;;;;;;;;;;;;;;24.24;67.44;100300.53;7400416;19;1826;-54
2023/06/28 00:21:22;;;;;;;;;;;;;;;24.21;67.46;100308.00;7400736;19;1374;-54
2023/06/28 00:23:51;;;;;;;;;;;;;;;24.25;67.26;100307.59;7400098;19;1423;-54
2023/06/28 00:26:19;;;;;;;;;;;;;;;24.25;67.33;100313.00;7398168;19;1857;-54
2023/06/28 00:28:47;;;;;;;;;;;;;;;24.23;67.50;100305.06;7398496;19;1477;-54
2023/06/28 00:31:16;;;;;;;;;;;;;;;24.34;67.16;100293.84;7400012;19;1801;-54
2023/06/28 00:33:47;;;;;;;;;;;;;;;24.28;67.44;100315.38;7400384;19;1826;-54
2023/06/28 00:36:15;;;;;;;;;;;;;;;24.22;67.49;100309.66;7399841;19;1431;-53
2023/06/28 00:38:43;;;;;;;;;;;;;;;24.20;67.54;100306.28;7400735;19;1793;-54
2023/06/28 00:41:12;;;;;;;;;;;;;;;24.24;67.58;100303.25;7400801;19;1039;-54
2023/06/28 00:43:40;;;;;;;;;;;;;;;24.21;67.47;100291.78;7399913;19;1917;-54
2023/06/28 00:46:08;;;;;;;;;;;;;;;24.24;67.51;100323.00;7399080;19;1839;-54
2023/06/28 00:48:37;;;;;;;;;;;;;;;24.25;67.49;100313.84;7399116;19;1952;-54
2023/06/28 00:51:08;;;;;;;;;;;;;;;24.22;67.50;100317.75;7399467;19;1687;-54
2023/06/28 00:53:37;;;;;;;;;;;;;;;24.21;67.27;100299.03;7399382;19;1747;-54
2023/06/28 00:56:06;;;;;;;;;;;;;;;24.20;67.78;100316.25;7398318;19;1019;-54
2023/06/28 00:58:34;;;;;;;;;;;;;;;24.25;67.46;100310.31;7399886;19;1877;-54
2023/06/28 01:01:03;;;;;;;;;;;;;;;24.23;67.47;100326.69;7398714;19;2071;-54
2023/06/28 01:03:31;;;;;;;;;;;;;;;24.22;67.46;100315.06;7398808;19;1957;-54
2023/06/28 01:06:01;;;;;;;;;;;;;;;24.20;67.43;100311.69;7398554;19;1869;-54
2023/06/28 01:08:32;;;;;;;;;;;;;;;24.27;67.37;100310.97;7398917;19;1776;-54
2023/06/28 01:11:01;;;;;;;;;;;;;;;24.32;67.18;100309.41;7398222;19;1382;-54
2023/06/28 01:13:29;;;;;;;;;;;;;;;24.30;67.36;100305.22;7397940;19;1386;-54
2023/06/28 01:15:58;;;;;;;;;;;;;;;24.27;67.56;100321.78;7395129;19;1874;-54
2023/06/28 01:18:26;;;;;;;;;;;;;;;24.29;67.19;100314.31;7398627;19;1391;-54
2023/06/28 01:20:56;;;;;;;;;;;;;;;24.28;67.42;100318.06;7397827;19;1492;-54
2023/06/28 01:23:27;;;;;;;;;;;;;;;24.28;67.24;100313.50;7397720;19;1489;-54
2023/06/28 01:25:56;;;;;;;;;;;;;;;24.25;67.19;100311.13;7398497;19;1852;-54
2023/06/28 01:28:24;;;;;;;;;;;;;;;24.30;67.22;100316.84;7399410;19;1109;-54
2023/06/28 01:30:53;;;;;;;;;;;;;;;24.26;67.30;100314.72;7399270;19;950;-54
2023/06/28 01:33:21;;;;;;;;;;;;;;;24.30;67.09;100321.44;7398461;19;1932;-54
2023/06/28 01:35:49;;;;;;;;;;;;;;;24.31;67.20;100310.44;7398122;19;1932;-54
2023/06/28 01:38:18;;;;;;;;;;;;;;;24.25;67.31;100315.72;7398128;19;1834;-54
2023/06/28 01:40:51;;;;;;;;;;;;;;;24.28;67.37;100318.06;7397911;19;1624;-54
2023/06/28 01:43:20;;;;;;;;;;;;;;;24.30;67.32;100324.13;7398118;19;1422;-54
2023/06/28 01:45:49;;;;;;;;;;;;;;;24.27;67.32;100316.38;7397486;19;1849;-54
2023/06/28 01:48:18;;;;;;;;;;;;;;;24.24;67.18;100319.47;7396557;19;1707;-55
2023/06/28 01:50:47;;;;;;;;;;;;;;;24.31;67.08;100323.09;7396209;19;1719;-54
2023/06/28 01:53:15;;;;;;;;;;;;;;;24.27;67.30;100324.47;7395822;19;1394;-54
2023/06/28 01:55:44;;;;;;;;;;;;;;;24.28;67.27;100318.91;7398181;19;1329;-54
2023/06/28 01:58:15;;;;;;;;;;;;;;;24.22;67.49;100331.28;7396308;19;1916;-54
2023/06/28 02:00:43;;;;;;;;;;;;;;;24.21;67.32;100324.19;7397310;19;1750;-54
2023/06/28 02:03:11;;;;;;;;;;;;;;;24.21;67.38;100321.50;7395984;19;1383;-54
2023/06/28 02:05:40;;;;;;;;;;;;;;;24.18;67.66;100329.94;7396856;19;1855;-54
2023/06/28 02:08:08;;;;;;;;;;;;;;;24.22;67.28;100331.28;7395736;19;1469;-54
2023/06/28 02:10:37;;;;;;;;;;;;;;;24.21;67.48;100328.75;7393373;19;1343;-54
2023/06/28 02:13:05;;;;;;;;;;;;;;;24.21;67.52;100335.00;7397220;19;1612;-54
2023/06/28 02:15:36;;;;;;;;;;;;;;;24.26;67.48;100347.13;7398031;19;1937;-54
2023/06/28 02:18:05;;;;;;;;;;;;;;;24.25;67.39;100331.94;7396832;19;1687;-54
2023/06/28 02:20:33;;;;;;;;;;;;;;;24.22;67.36;100325.88;7397459;19;1379;-54
2023/06/28 02:23:01;;;;;;;;;;;;;;;24.24;67.29;100331.09;7398381;19;1026;-54
2023/06/28 02:25:30;;;;;;;;;;;;;;;24.24;67.30;100327.56;7397472;19;1533;-54
2023/06/28 02:27:58;;;;;;;;;;;;;;;24.22;67.35;100339.38;7399862;19;1968;-54
2023/06/28 02:30:26;;;;;;;;;;;;;;;24.27;67.21;100338.81;7404142;19;1802;-54
2023/06/28 02:32:57;;;;;;;;;;;;;;;24.21;67.40;100335.00;7404652;19;1691;-54
2023/06/28 02:35:25;;;;;;;;;;;;;;;24.24;67.36;100349.19;7404332;19;1516;-54
2023/06/28 02:37:54;;;;;;;;;;;;;;;24.24;67.36;100339.19;7404142;19;1726;-54
2023/06/28 02:40:22;;;;;;;;;;;;;;;24.21;67.48;100336.84;7402858;19;1683;-54
2023/06/28 02:42:50;;;;;;;;;;;;;;;24.20;67.28;100338.72;7402900;19;1707;-54
2023/06/28 02:45:19;;;;;;;;;;;;;;;24.20;67.42;100333.31;7402849;19;1719;-54
2023/06/28 02:47:47;;;;;;;;;;;;;;;24.21;67.31;100332.31;7401516;19;1855;-54
2023/06/28 02:50:18;;;;;;;;;;;;;;;24.22;67.29;100333.97;7403285;19;1469;-54
2023/06/28 02:52:46;;;;;;;;;;;;;;;24.21;67.32;100339.53;7402890;19;1430;-54
2023/06/28 02:55:14;;;;;;;;;;;;;;;24.21;67.17;100344.94;7404850;19;947;-54
2023/06/28 02:57:43;;;;;;;;;;;;;;;24.20;67.33;100344.13;7402253;19;1908;-54
2023/06/28 03:00:11;;;;;;;;;;;;;;;24.21;67.49;100344.94;7402266;19;1588;-54
2023/06/28 03:02:40;;;;;;;;;;;;;;;24.17;67.34;100346.34;7401066;19;1711;-54
2023/06/28 03:05:08;;;;;;;;;;;;;;;24.20;67.37;100333.31;7401008;19;1805;-55
2023/06/28 03:07:39;;;;;;;;;;;;;;;24.20;67.33;100335.19;7400999;19;1842;-54
2023/06/28 03:10:08;;;;;;;;;;;;;;;24.22;67.29;100342.06;7403172;19;1687;-54
2023/06/28 03:12:37;;;;;;;;;;;;;;;24.20;67.56;100337.88;7403495;19;1719;-54
2023/06/28 03:15:06;;;;;;;;;;;;;;;24.12;67.43;100341.47;7403821;19;1835;-54
2023/06/28 03:17:35;;;;;;;;;;;;;;;24.17;67.52;100349.91;7403830;19;1073;-54
2023/06/28 03:20:04;;;;;;;;;;;;;;;24.13;67.60;100351.28;7402836;19;1533;-55
2023/06/28 03:22:33;;;;;;;;;;;;;;;24.13;67.64;100353.97;7402635;19;1865;-54
2023/06/28 03:25:04;;;;;;;;;;;;;;;24.18;67.28;100353.44;7402647;19;1854;-54
2023/06/28 03:27:32;;;;;;;;;;;;;;;24.20;67.20;100352.22;7401316;19;1925;-54
2023/06/28 03:30:00;;;;;;;;;;;;;;;24.20;67.38;100362.19;7402611;19;1731;-54
2023/06/28 03:32:28;;;;;;;;;;;;;;;24.15;67.63;100354.63;7401566;19;1394;-54
2023/06/28 03:34:57;;;;;;;;;;;;;;;24.18;67.35;100356.97;7401074;19;1435;-54
2023/06/28 03:37:25;;;;;;;;;;;;;;;24.15;67.25;100346.53;7400638;19;1394;-54
2023/06/28 03:39:53;;;;;;;;;;;;;;;24.25;67.45;100342.72;7401402;19;1477;-54
2023/06/28 03:42:24;;;;;;;;;;;;;;;24.18;67.44;100348.03;7401331;19;1758;-54
2023/06/28 03:44:53;;;;;;;;;;;;;;;24.17;67.44;100355.31;7401519;19;1743;-54
2023/06/28 03:47:21;;;;;;;;;;;;;;;24.25;67.34;100356.25;7401262;19;1850;-54
2023/06/28 03:49:49;;;;;;;;;;;;;;;24.23;67.39;100367.22;7400686;19;1453;-54
2023/06/28 03:52:20;;;;;;;;;;;;;;;24.25;67.32;100356.25;7402277;19;1383;-54
2023/06/28 03:54:49;;;;;;;;;;;;;;;24.19;67.38;100353.25;7399065;19;1580;-54
2023/06/28 03:57:17;;;;;;;;;;;;;;;24.19;67.27;100366.78;7398319;19;1862;-54
2023/06/28 03:59:48;;;;;;;;;;;;;;;24.16;67.49;100356.31;7401051;19;1489;-54
2023/06/28 04:02:16;;;;;;;;;;;;;;;24.18;67.61;100356.97;7400113;19;1504;-55
2023/06/28 04:04:44;;;;;;;;;;;;;;;24.16;67.51;100353.59;7398228;19;3127;-54
2023/06/28 04:07:13;;;;;;;;;;;;;;;24.14;67.49;100363.75;7400374;19;1841;-54
2023/06/28 04:09:42;;;;;;;;;;;;;;;24.13;67.42;100375.59;7402515;19;946;-54
2023/06/28 04:12:11;;;;;;;;;;;;;;;24.08;67.64;100364.47;7401164;19;2099;-54
2023/06/28 04:14:39;;;;;;;;;;;;;;;24.05;68.01;100367.50;7401069;19;1607;-54
2023/06/28 04:17:10;;;;;;;;;;;;;;;24.09;68.00;100363.44;7400264;19;1803;-54
2023/06/28 04:19:38;;;;;;;;;;;;;;;24.06;67.84;100353.00;7397694;19;1485;-55
2023/06/28 04:22:06;;;;;;;;;;;;;;;24.09;67.75;100359.91;7400343;19;1402;-54
2023/06/28 04:24:35;;;;;;;;;;;;;;;24.10;67.71;100359.72;7400035;19;1731;-54
2023/06/28 04:27:03;;;;;;;;;;;;;;;24.14;67.69;100371.84;7399346;19;1841;-55
2023/06/28 04:29:32;;;;;;;;;;;;;;;24.08;67.79;100377.97;7399295;19;1971;-54
2023/06/28 04:32:01;;;;;;;;;;;;;;;24.13;67.64;100375.59;7398392;19;1438;-54
2023/06/28 04:34:32;;;;;;;;;;;;;;;24.18;67.50;100378.56;7400477;19;1419;-54
2023/06/28 04:37:00;;;;;;;;;;;;;;;24.15;67.51;100378.97;7399930;19;1415;-54
2023/06/28 04:39:29;;;;;;;;;;;;;;;24.14;67.59;100382.66;7399297;19;1358;-54
2023/06/28 04:41:57;;;;;;;;;;;;;;;24.11;67.55;100366.78;7399930;19;1964;-54
2023/06/28 04:44:26;;;;;;;;;;;;;;;24.05;67.84;100372.91;7399969;19;1346;-54
2023/06/28 04:46:54;;;;;;;;;;;;;;;24.01;67.94;100368.88;7399793;19;1841;-54
2023/06/28 04:49:22;;;;;;;;;;;;;;;24.02;67.80;100390.31;7400021;19;2082;-54
2023/06/28 04:51:54;;;;;;;;;;;;;;;23.99;68.15;100385.31;7399568;19;1937;-54
2023/06/28 04:54:22;;;;;;;;;;;;;;;24.00;67.94;100380.72;7398558;19;1825;-54
2023/06/28 04:56:50;;;;;;;;;;;;;;;24.01;68.14;100377.00;7400004;19;1826;-54
2023/06/28 04:59:19;;;;;;;;;;;;;;;24.04;67.83;100387.47;7399087;19;1809;-54
2023/06/28 05:01:47;;;;;;;;;;;;;;;24.02;67.94;100368.72;7399738;19;1038;-54
2023/06/28 05:04:15;;;;;;;;;;;;;;;24.09;67.65;100368.84;7395616;19;1667;-54
2023/06/28 05:06:43;;;;;;;;;;;;;;;24.01;67.81;100364.34;7398260;19;1856;-54
2023/06/28 05:09:14;;;;;;;;;;;;;;;24.07;67.76;100359.25;7397870;19;1827;-54
2023/06/28 05:11:43;;;;;;;;;;;;;;;24.01;68.05;100358.09;7397727;19;1323;-54
2023/06/28 05:14:11;;;;;;;;;;;;;;;24.08;67.89;100344.72;7399151;19;1809;-54
2023/06/28 05:16:39;;;;;;;;;;;;;;;24.05;68.03;100362.13;7398928;19;1812;-54
2023/06/28 05:19:08;;;;;;;;;;;;;;;24.01;68.19;100360.78;7398342;19;1767;-54
2023/06/28 05:21:36;;;;;;;;;;;;;;;24.04;67.90;100365.84;7398312;19;1058;-54
2023/06/28 05:24:04;;;;;;;;;;;;;;;24.02;67.94;100359.78;7396796;19;1795;-54
2023/06/28 05:26:35;;;;;;;;;;;;;;;24.11;67.71;100353.28;7397325;19;1418;-54
2023/06/28 05:29:04;;;;;;;;;;;;;;;24.15;67.86;100361.88;7395296;19;1844;-57
2023/06/28 05:31:32;;;;;;;;;;;;;;;24.12;67.71;100354.16;7397539;19;1398;-54
2023/06/28 05:34:00;;;;;;;;;;;;;;;24.19;67.55;100380.28;7396763;19;1779;-54
2023/06/28 05:36:28;;;;;;;;;;;;;;;24.15;67.58;100357.34;7396633;19;1730;-54
2023/06/28 05:38:57;;;;;;;;;;;;;;;24.16;67.67;100364.41;7397366;19;1838;-54
2023/06/28 05:41:25;;;;;;;;;;;;;;;24.13;67.81;100372.88;7397872;19;1398;-54
2023/06/28 05:43:56;;;;;;;;;;;;;;;24.16;67.91;100374.38;7398830;19;1006;-54
2023/06/28 05:46:25;;;;;;;;;;;;;;;24.14;67.72;100382.66;7399306;19;1038;-54
2023/06/28 05:48:53;;;;;;;;;;;;;;;24.15;67.60;100387.06;7396219;19;1938;-54
2023/06/28 05:51:21;;;;;;;;;;;;;;;24.15;67.61;100384.34;7397879;19;1857;-54
2023/06/28 05:53:49;;;;;;;;;;;;;;;24.16;67.44;100386.03;7397777;19;1755;-54
2023/06/28 05:56:18;;;;;;;;;;;;;;;24.20;67.75;100397.31;7396874;19;1129;-54
2023/06/28 05:58:46;;;;;;;;;;;;;;;24.36;67.09;100399.06;7398109;19;1524;-54
2023/06/28 06:01:17;;;;;;;;;;;;;;;24.33;67.16;100402.97;7396124;19;1854;-54
2023/06/28 06:03:45;;;;;;;;;;;;;;;24.34;67.08;100399.25;7395436;19;1639;-54
2023/06/28 06:06:13;;;;;;;;;;;;;;;24.30;67.19;100391.69;7398079;19;1735;-54
2023/06/28 06:08:42;;;;;;;;;;;;;;;24.38;66.99;100397.03;7395299;19;1838;-54
2023/06/28 06:11:10;;;;;;;;;;;;;;;24.30;67.11;100402.50;7396501;19;1385;-54
2023/06/28 06:13:38;;;;;;;;;;;;;;;24.36;67.10;100385.56;7396389;19;1766;-54
2023/06/28 06:16:06;;;;;;;;;;;;;;;24.32;67.12;100395.03;7396307;19;1763;-54
2023/06/28 06:18:40;;;;;;;;;;;;;;;24.35;67.31;100400.06;7395261;19;1793;-55
2023/06/28 06:21:08;;;;;;;;;;;;;;;24.29;67.21;100390.84;7396976;19;1809;-54
2023/06/28 06:23:36;;;;;;;;;;;;;;;24.26;67.43;100387.66;7396412;19;1888;-54
2023/06/28 06:26:05;;;;;;;;;;;;;;;24.22;67.59;100374.50;7396069;19;1371;-54
2023/06/28 06:28:33;;;;;;;;;;;;;;;24.20;67.58;100387.34;7396629;19;1936;-54
2023/06/28 06:31:01;;;;;;;;;;;;;;;24.18;67.84;100394.78;7398330;19;1044;-54
2023/06/28 06:33:29;;;;;;;;;;;;;;;24.21;67.80;100404.38;7396670;19;1564;-54
2023/06/28 06:36:00;;;;;;;;;;;;;;;24.24;67.50;100392.41;7396369;19;1589;-54
2023/06/28 06:38:29;;;;;;;;;;;;;;;24.27;67.47;100417.19;7396508;19;1770;-54
2023/06/28 06:40:57;;;;;;;;;;;;;;;24.31;67.37;100425.78;7396556;19;1954;-54
2023/06/28 06:43:25;;;;;;;;;;;;;;;24.26;67.59;100399.31;7396992;19;1723;-54
2023/06/28 06:45:53;;;;;;;;;;;;;;;24.37;67.22;100414.25;7395705;19;1320;-54
2023/06/28 06:48:22;;;;;;;;;;;;;;;24.34;67.38;100414.63;7394450;19;1855;-54
2023/06/28 06:50:50;;;;;;;;;;;;;;;24.31;67.41;100437.44;7395235;19;1323;-54
2023/06/28 06:53:21;;;;;;;;;;;;;;;24.32;67.39;100420.19;7394571;19;1723;-54
2023/06/28 06:55:49;;;;;;;;;;;;;;;24.33;67.36;100419.19;7396471;19;1330;-54
2023/06/28 06:58:17;;;;;;;;;;;;;;;24.31;67.48;100428.47;7395216;19;1893;-55
2023/06/28 07:00:46;;;;;;;;;;;;;;;24.29;67.61;100433.22;7395922;19;1500;-54
2023/06/28 07:03:15;;;;;;;;;;;;;;;24.25;67.66;100415.69;7395086;19;1664;-54
2023/06/28 07:05:43;;;;;;;;;;;;;;;24.22;67.85;100423.13;7395031;19;1365;-54
2023/06/28 07:08:11;;;;;;;;;;;;;;;24.21;67.97;100429.56;7393656;19;1863;-54
2023/06/28 07:10:42;;;;;;;;;;;;;;;24.18;67.89;100415.56;7394256;19;1707;-54
2023/06/28 07:13:11;;;;;;;;;;;;;;;24.17;67.80;100422.84;7396266;19;1640;-54
2023/06/28 07:15:39;;;;;;;;;;;;;;;24.25;67.61;100426.50;7402691;19;1858;-54
2023/06/28 07:18:08;;;;;;;;;;;;;;;24.24;67.61;100435.63;7402920;19;1674;-54
2023/06/28 07:20:36;;;;;;;;;;;;;;;24.24;67.81;100422.13;7403401;19;1288;-54
2023/06/28 07:23:04;;;;;;;;;;;;;;;24.26;67.70;100417.38;7403496;19;1118;-54
2023/06/28 07:25:32;;;;;;;;;;;;;;;24.29;67.74;100411.59;7403470;19;1117;-54
2023/06/28 07:28:03;;;;;;;;;;;;;;;24.27;67.65;100419.06;7401742;19;1845;-54
2023/06/28 07:30:32;;;;;;;;;;;;;;;24.29;67.57;100411.59;7403087;19;1854;-54
2023/06/28 07:33:00;;;;;;;;;;;;;;;24.30;67.81;100424.94;7402056;19;1829;-54
2023/06/28 07:35:29;;;;;;;;;;;;;;;24.28;67.24;100418.03;7402834;19;1825;-54
2023/06/28 07:37:57;;;;;;;;;;;;;;;24.29;67.40;100408.91;7401135;19;1378;-54
2023/06/28 07:40:25;;;;;;;;;;;;;;;24.28;67.47;100399.97;7401619;19;1671;-54
2023/06/28 07:42:53;;;;;;;;;;;;;;;24.28;67.53;100418.88;7400708;19;1303;-54
2023/06/28 07:45:26;;;;;;;;;;;;;;;24.29;67.54;100411.59;7400700;19;1794;-54
2023/06/28 07:47:55;;;;;;;;;;;;;;;24.31;67.33;100398.75;7399886;19;1842;-54
2023/06/28 07:50:23;;;;;;;;;;;;;;;24.34;67.65;100404.66;7401631;19;1676;-54
2023/06/28 07:52:52;;;;;;;;;;;;;;;24.34;67.39;100406.50;7401360;19;1425;-54
2023/06/28 07:55:20;;;;;;;;;;;;;;;24.34;67.37;100420.03;7402292;19;1026;-54
2023/06/28 07:57:48;;;;;;;;;;;;;;;24.36;67.33;100426.09;7400333;19;1481;-54
2023/06/28 08:00:17;;;;;;;;;;;;;;;24.38;67.28;100410.53;7400874;19;1723;-54
2023/06/28 08:02:48;;;;;;;;;;;;;;;24.34;67.32;100401.94;7399797;19;1299;-54
2023/06/28 08:05:16;;;;;;;;;;;;;;;24.36;67.17;100407.19;7398223;19;1288;-54
2023/06/28 08:07:45;;;;;;;;;;;;;;;24.37;67.35;100414.25;7402145;19;1851;-54
2023/06/28 08:10:13;;;;;;;;;;;;;;;24.38;67.28;100441.09;7402506;19;1004;-54
2023/06/28 08:12:41;;;;;;;;;;;;;;;24.34;67.54;100434.38;7401389;19;1944;-54
2023/06/28 08:15:10;;;;;;;;;;;;;;;24.36;67.08;100434.19;7400211;19;1920;-54
2023/06/28 08:17:39;;;;;;;;;;;;;;;24.40;66.93;100441.75;7399151;19;1802;-54
2023/06/28 08:20:10;;;;;;;;;;;;;;;24.42;66.95;100412.69;7400804;19;1703;-54
2023/06/28 08:22:38;;;;;;;;;;;;;;;24.44;67.08;100423.34;7400619;19;1347;-54
2023/06/28 08:25:07;;;;;;;;;;;;;;;24.42;67.03;100425.38;7400774;19;1015;-54
2023/06/28 08:27:35;;;;;;;;;;;;;;;24.42;67.09;100410.00;7399910;19;1838;-54
2023/06/28 08:30:03;;;;;;;;;;;;;;;24.42;66.95;100425.38;7397696;19;1851;-55
2023/06/28 08:32:35;;;;;;;;;;;;;;;24.45;67.11;100430.41;7399265;19;1378;-54
2023/06/28 08:35:03;;;;;;;;;;;;;;;24.46;67.02;100434.81;7399154;19;1715;-54
2023/06/28 08:37:34;;;;;;;;;;;;;;;24.45;66.97;100426.88;7398928;19;1708;-54
2023/06/28 08:40:04;;;;;;;;;;;;;;;24.45;67.16;100425.00;7400460;19;1747;-54
2023/06/28 08:42:33;;;;;;;;;;;;;;;24.47;67.09;100432.94;7400240;19;1938;-54
2023/06/28 08:45:04;;;;;;;;;;;;;;;24.49;67.23;100439.00;7400801;19;1014;-54
2023/06/28 08:47:33;;;;;;;;;;;;;;;24.46;67.09;100433.97;7398157;19;1592;-54
2023/06/28 08:50:01;;;;;;;;;;;;;;;24.45;67.21;100416.88;7398780;19;1842;-54
2023/06/28 08:52:30;;;;;;;;;;;;;;;24.48;67.13;100421.13;7401296;19;957;-54
2023/06/28 08:55:03;;;;;;;;;;;;;;;24.46;67.08;100421.28;7399996;19;1846;-54
2023/06/28 08:57:32;;;;;;;;;;;;;;;24.46;67.20;100415.88;7396942;19;1422;-54
2023/06/28 09:00:02;;;;;;;;;;;;;;;24.48;67.03;100415.72;7398760;19;1738;-55
2023/06/28 09:02:33;;;;;;;;;;;;;;;24.49;66.86;100429.06;7399718;19;1798;-54
2023/06/28 09:05:02;;;;;;;;;;;;;;;24.50;67.18;100429.88;7398126;19;1833;-54
2023/06/28 09:07:31;;;;;;;;;;;;;;;24.48;66.93;100405.72;7398745;19;1770;-54
2023/06/28 09:10:02;;;;;;;;;;;;;;;24.47;67.05;100409.47;7398358;19;1841;-54
2023/06/28 09:12:30;;;;;;;;;;;;;;;24.45;66.99;100405.25;7399227;19;1358;-54
2023/06/28 09:14:59;;;;;;;;;;;;;;;24.46;66.94;100399.66;7400098;19;1041;-54
2023/06/28 09:17:27;;;;;;;;;;;;;;;24.48;67.04;100402.19;7399442;19;1952;-54
2023/06/28 09:19:55;;;;;;;;;;;;;;;24.48;67.15;100411.13;7398827;19;1521;-54
2023/06/28 09:22:24;;;;;;;;;;;;;;;24.49;67.09;100420.94;7399131;19;1525;-54
2023/06/28 09:24:52;;;;;;;;;;;;;;;24.49;67.03;100417.38;7398580;19;1599;-54
2023/06/28 09:27:23;;;;;;;;;;;;;;;24.46;67.13;100413.19;7398730;19;1448;-54
2023/06/28 09:29:59;;;;;;;;;;;;;;;24.49;66.90;100393.91;7397265;19;1866;-54
2023/06/28 09:32:28;;;;;;;;;;;;;;;24.48;67.16;100413.84;7398714;19;1742;-54
2023/06/28 09:34:57;;;;;;;;;;;;;;;24.43;67.33;100410.81;7397023;19;1386;-54
2023/06/28 09:37:25;;;;;;;;;;;;;;;24.41;67.13;100411.03;7395198;19;1481;-54
2023/06/28 09:39:53;;;;;;;;;;;;;;;24.42;67.41;100401.88;7399099;19;1711;-54
2023/06/28 09:42:25;;;;;;;;;;;;;;;24.44;67.08;100408.97;7398092;19;1347;-55
2023/06/28 09:44:57;;;;;;;;;;;;;;;24.45;67.19;100405.25;7398385;19;1707;-54
2023/06/28 09:47:33;;;;;;;;;;;;;;;24.48;67.22;100408.44;7396656;19;1482;-54
2023/06/28 09:50:03;;;;;;;;;;;;;;;24.44;67.22;100412.53;7397351;19;1836;-54
2023/06/28 09:52:37;;;;;;;;;;;;;;;24.40;67.37;100414.75;7399469;19;1166;-54
2023/06/28 09:55:07;;;;;;;;;;;;;;;24.36;67.43;100388.25;7396016;19;1568;-54
2023/06/28 09:57:39;;;;;;;;;;;;;;;24.32;67.71;100389.66;7396589;19;1469;-54
2023/06/28 10:00:10;;;;;;;;;;;;;;;24.34;67.45;100393.00;7396613;19;1794;-54
2023/06/28 10:02:39;;;;;;;;;;;;;;;24.34;67.73;100379.50;7396268;19;1820;-54
2023/06/28 10:05:09;;;;;;;;;;;;;;;24.34;67.59;100377.63;7395902;19;1751;-54
2023/06/28 10:07:40;;;;;;;;;;;;;;;24.36;67.31;100390.97;7395587;19;1425;-54
2023/06/28 10:10:10;;;;;;;;;;;;;;;24.31;67.71;100382.53;7395815;19;1843;-54
2023/06/28 10:12:42;;;;;;;;;;;;;;;24.31;67.62;100383.41;7397696;19;1367;-54
2023/06/28 10:15:12;;;;;;;;;;;;;;;24.33;67.71;100372.41;7397052;19;1382;-54
2023/06/28 10:17:41;;;;;;;;;;;;;;;24.30;67.74;100372.78;7398282;19;992;-54
2023/06/28 10:20:10;;;;;;;;;;;;;;;24.32;67.56;100374.25;7397799;19;2010;-54
2023/06/28 10:22:39;;;;;;;;;;;;;;;24.35;67.47;100383.84;7397018;19;1857;-54
2023/06/28 10:25:08;;;;;;;;;;;;;;;24.39;67.26;100396.84;7396023;19;1577;-54
2023/06/28 10:27:36;;;;;;;;;;;;;;;24.38;67.13;100384.34;7396707;19;1468;-54
2023/06/28 10:30:08;;;;;;;;;;;;;;;24.42;67.13;100384.84;7395289;19;1850;-54
2023/06/28 10:32:37;;;;;;;;;;;;;;;24.42;67.16;100385.66;7396929;19;1829;-54
2023/06/28 10:35:06;;;;;;;;;;;;;;;24.39;67.38;100368.97;7395745;19;1727;-54
2023/06/28 10:37:34;;;;;;;;;;;;;;;24.40;67.52;100392.28;7394791;19;1676;-54
2023/06/28 10:40:04;;;;;;;;;;;;;;;24.34;67.48;100382.19;7395482;19;1514;-54
2023/06/28 10:42:40;;;;;;;;;;;;;;;24.31;67.48;100380.69;7397524;19;1837;-54
2023/06/28 10:45:11;;;;;;;;;;;;;;;24.35;67.63;100378.47;7397000;19;1798;-54
2023/06/28 10:47:52;;;;;;;;;;;;;;;24.35;67.60;100383.84;7397604;19;1457;-54
2023/06/28 10:50:22;;;;;;;;;;;;;;;24.32;67.59;100389.66;7401603;19;1846;-54
2023/06/28 10:52:51;;;;;;;;;;;;;;;24.35;67.60;100400.06;7404054;19;1808;-54
2023/06/28 10:55:20;;;;;;;;;;;;;;;24.34;67.66;100398.41;7403696;19;1739;-54
2023/06/28 10:57:48;;;;;;;;;;;;;;;24.31;67.61;100399.63;7404249;19;1081;-54
2023/06/28 11:00:40;;;;;;;;;;;;;;;24.34;67.74;100418.16;7403356;19;1513;-54
2023/06/28 11:03:11;;;;;;;;;;;;;;;24.32;67.72;100406.69;7400525;19;1584;-54
2023/06/28 11:05:41;;;;;;;;;;;;;;;24.32;67.59;100422.91;7404153;19;1905;-53
2023/06/28 11:08:09;;;;;;;;;;;;;;;24.35;67.48;100421.69;7402808;19;1950;-54
2023/06/28 11:10:41;;;;;;;;;;;;;;;24.36;67.37;100418.81;7400707;19;1953;-54
2023/06/28 11:13:13;;;;;;;;;;;;;;;24.37;67.69;100446.69;7403662;19;1476;-54
2023/06/28 11:15:45;;;;;;;;;;;;;;;24.38;67.38;100457.31;7403295;19;1719;-54
2023/06/28 11:18:18;;;;;;;;;;;;;;;24.35;67.51;100433.38;7402503;19;1366;-54
2023/06/28 11:20:48;;;;;;;;;;;;;;;24.37;67.42;100457.50;7404100;19;978;-54
2023/06/28 11:23:25;;;;;;;;;;;;;;;24.36;67.55;100420.69;7399356;19;1881;-54
2023/06/28 11:25:57;;;;;;;;;;;;;;;24.37;67.41;100447.53;7402520;19;1924;-54
2023/06/28 11:28:28;;;;;;;;;;;;;;;24.38;67.41;100451.06;7402103;19;1300;-54
2023/06/28 11:30:56;;;;;;;;;;;;;;;24.38;67.29;100465.44;7399695;19;1877;-54
2023/06/28 11:33:28;;;;;;;;;;;;;;;24.39;67.51;100460.84;7402106;19;1489;-54
2023/06/28 11:35:58;;;;;;;;;;;;;;;24.40;67.43;100468.78;7403603;19;1018;-54
2023/06/28 11:38:26;;;;;;;;;;;;;;;24.39;67.51;100461.72;7402770;19;1066;-54
2023/06/28 11:40:55;;;;;;;;;;;;;;;24.41;67.51;100475.91;7402824;19;1853;-54
2023/06/28 11:43:23;;;;;;;;;;;;;;;24.41;67.31;100475.03;7399332;19;1858;-54
2023/06/28 11:45:52;;;;;;;;;;;;;;;24.44;67.55;100473.84;7399312;19;1837;-54
2023/06/28 11:48:22;;;;;;;;;;;;;;;24.42;67.52;100474.03;7401084;19;1378;-54
2023/06/28 11:51:00;;;;;;;;;;;;;;;24.41;67.59;100475.03;7399582;19;1850;-54
2023/06/28 11:53:29;;;;;;;;;;;;;;;24.38;67.51;100462.72;7402274;19;1841;-54
2023/06/28 11:55:58;;;;;;;;;;;;;;;24.36;67.64;100480.97;7402025;19;1453;-54
2023/06/28 11:58:31;;;;;;;;;;;;;;;24.34;67.71;100482.19;7400907;19;1831;-54
2023/06/28 12:00:59;;;;;;;;;;;;;;;24.35;67.63;100484.72;7399800;19;1461;-54
2023/06/28 12:03:34;;;;;;;;;;;;;;;24.34;67.96;100495.69;7399756;19;1787;-54
2023/06/28 12:06:06;;;;;;;;;;;;;;;24.32;67.79;100476.13;7401772;19;1730;-54
2023/06/28 12:08:35;;;;;;;;;;;;;;;24.32;67.66;100487.75;7402417;19;955;-54
2023/06/28 12:11:04;;;;;;;;;;;;;;;24.27;67.88;100462.28;7399731;19;1861;-54
2023/06/28 12:13:32;;;;;;;;;;;;;;;24.29;68.11;100474.63;7401691;19;1972;-54
2023/06/28 12:16:00;;;;;;;;;;;;;;;24.30;67.88;100486.25;7399062;19;1517;-54
2023/06/28 12:18:44;;;;;;;;;;;;;;;24.28;67.95;100472.94;7401254;19;1719;-54
2023/06/28 12:21:24;;;;;;;;;;;;;;;24.26;68.06;100484.94;7400211;19;1585;-54
2023/06/28 12:23:53;;;;;;;;;;;;;;;24.27;68.01;100484.72;7399226;19;1762;-54
2023/06/28 12:26:23;;;;;;;;;;;;;;;24.27;67.93;100483.91;7399835;19;1833;-54
2023/06/28 12:28:52;;;;;;;;;;;;;;;24.24;68.15;100489.69;7400086;19;1019;-54
2023/06/28 12:31:20;;;;;;;;;;;;;;;24.22;68.00;100498.78;7397482;19;1885;-54
2023/06/28 12:33:55;;;;;;;;;;;;;;;24.23;68.26;100486.09;7399974;19;1660;-54
2023/06/28 12:36:26;;;;;;;;;;;;;;;24.27;67.97;100497.41;7399296;19;1734;-54
2023/06/28 12:38:54;;;;;;;;;;;;;;;24.26;67.91;100490.34;7398830;19;1410;-54
2023/06/28 12:41:22;;;;;;;;;;;;;;;24.28;67.76;100491.00;7398461;19;1747;-54
2023/06/28 12:43:58;;;;;;;;;;;;;;;24.30;67.88;100513.28;7400233;19;1378;-54
2023/06/28 12:46:28;;;;;;;;;;;;;;;24.30;67.66;100521.38;7399624;19;1817;-54
2023/06/28 12:48:57;;;;;;;;;;;;;;;24.34;67.97;100511.91;7399637;19;1679;-54
2023/06/28 12:51:28;;;;;;;;;;;;;;;24.28;67.63;100513.47;7398852;19;1857;-55
2023/06/28 12:53:56;;;;;;;;;;;;;;;24.29;67.68;100519.69;7397761;19;1504;-54
2023/06/28 12:56:26;;;;;;;;;;;;;;;24.35;67.89;100524.38;7399874;19;1037;-54
2023/06/28 12:58:55;;;;;;;;;;;;;;;24.35;67.91;100532.50;7400516;19;1029;-55